createdAt,value
2023-03-28T09:33:46.477Z,5.18
2023-03-28T09:34:51.258Z,3.58
2023-03-28T09:35:56.079Z,2.45
2023-03-28T09:37:05.132Z,1.58
2023-03-28T09:38:17.097Z,1.27
2023-03-28T09:39:27.135Z,1.50
2023-03-28T09:40:30.940Z,2.55
2023-03-28T09:41:52.502Z,3.65
2023-03-28T09:43:05.244Z,3.83
2023-03-28T09:44:10.531Z,3.33
2023-03-28T09:45:26.776Z,1.30
2023-03-28T09:46:37.086Z,4.03
2023-03-28T09:47:43.234Z,13.18
2023-03-28T09:48:45.579Z,2.65
2023-03-28T09:49:48.552Z,3.03
2023-03-28T09:50:52.682Z,2.08
2023-03-28T09:51:56.347Z,2.63
2023-03-28T09:52:59.154Z,1.73
2023-03-28T09:54:05.780Z,4.45
2023-03-28T09:55:16.695Z,3.88
2023-03-28T09:56:26.371Z,3.03
2023-03-28T09:58:07.179Z,5.78
2023-03-28T09:59:15.598Z,1.33
2023-03-28T10:00:21.419Z,2.67
2023-03-28T10:01:32.890Z,2.03
2023-03-28T10:02:35.092Z,5.75
2023-03-28T10:03:37.415Z,3.60
2023-03-28T10:04:39.877Z,0.75
2023-03-28T10:05:43.280Z,2.17
2023-03-28T10:06:46.443Z,4.30
2023-03-28T10:07:48.562Z,1.73
2023-03-28T10:08:50.941Z,5.35
2023-03-28T10:09:55.849Z,2.05
2023-03-28T10:11:01.999Z,1.27
2023-03-28T10:12:13.260Z,1.58
2023-03-28T10:13:18.564Z,2.55
2023-03-28T10:14:35.474Z,3.95
2023-03-28T10:15:42.609Z,2.13
2023-03-28T10:16:46.272Z,1.75
2023-03-28T10:17:50.232Z,5.75
2023-03-28T10:18:52.983Z,3.15
2023-03-28T10:20:00.691Z,2.40
2023-03-28T10:21:10.329Z,4.32
2023-03-28T10:22:15.558Z,3.63
2023-03-28T10:23:17.965Z,3.92
2023-03-28T10:24:22.170Z,4.88
2023-03-28T10:25:37.416Z,4.25
2023-03-28T10:26:40.760Z,4.93
2023-03-28T10:27:44.514Z,4.38
2023-03-28T10:28:52.435Z,0.55
2023-03-28T10:29:57.521Z,1.77
2023-03-28T10:31:01.969Z,2.83
2023-03-28T10:32:06.493Z,6.40
2023-03-28T10:33:25.512Z,4.03
2023-03-28T10:34:29.826Z,1.50
2023-03-28T10:35:35.043Z,2.20
2023-03-28T10:36:42.098Z,2.17
2023-03-28T10:37:48.337Z,2.25
2023-03-28T10:38:50.481Z,3.17
2023-03-28T10:40:01.172Z,4.00
2023-03-28T10:41:07.805Z,4.82
2023-03-28T10:42:11.797Z,5.65
2023-03-28T10:43:18.793Z,1.42
2023-03-28T10:44:28.666Z,1.95
2023-03-28T10:45:34.503Z,1.40
2023-03-28T10:46:37.612Z,3.78
2023-03-28T10:47:41.920Z,2.63
2023-03-28T10:48:49.711Z,1.50
2023-03-28T10:49:55.656Z,2.08
2023-03-28T10:51:00.798Z,2.78
2023-03-28T10:52:12.819Z,5.45
2023-03-28T10:53:32.364Z,8.85
2023-03-28T10:54:50.273Z,4.20
2023-03-28T10:56:02.884Z,4.50
2023-03-28T10:57:14.018Z,8.40
2023-03-28T10:58:26.849Z,5.95
2023-03-28T10:59:48.287Z,5.63
2023-03-28T11:02:08.962Z,2.35
2023-03-28T11:03:38.310Z,1.88
2023-03-28T11:04:56.343Z,1.42
2023-03-28T11:06:10.132Z,6.45
2023-03-28T11:07:18.895Z,2.40
2023-03-28T11:08:36.412Z,2.90
2023-03-28T11:09:46.692Z,6.20
2023-03-28T11:11:00.461Z,1.10
2023-03-28T11:12:23.042Z,1.35
2023-03-28T11:13:38.455Z,5.85
2023-03-28T11:14:55.406Z,3.10
2023-03-28T11:16:03.632Z,3.70
2023-03-28T11:17:13.108Z,2.72
2023-03-28T11:18:41.152Z,4.05
2023-03-28T11:19:58.455Z,3.55
2023-03-28T11:21:16.173Z,2.28
2023-03-28T11:22:28.074Z,1.40
2023-03-28T11:23:54.123Z,2.83
2023-03-28T11:25:09.615Z,1.95
2023-03-28T11:26:14.700Z,1.35
2023-03-28T11:27:29.132Z,3.28
2023-03-28T11:28:46.426Z,2.58
2023-03-28T11:29:55.183Z,0.98
2023-03-28T11:31:00.281Z,1.92
2023-03-28T11:32:09.916Z,1.10
2023-03-28T11:33:19.092Z,1.17
2023-03-28T11:34:25.658Z,3.25
2023-03-28T11:35:32.430Z,1.27
2023-03-28T11:36:40.202Z,0.77
2023-03-28T11:37:47.159Z,2.90
2023-03-28T11:38:53.146Z,0.65
2023-03-28T11:40:00.840Z,6.70
2023-03-28T11:41:07.480Z,1.50
2023-03-28T11:42:15.285Z,3.25
2023-03-28T11:43:26.250Z,5.70
2023-03-28T11:44:33.623Z,2.08
2023-03-28T11:45:51.254Z,3.72
2023-03-28T11:46:59.660Z,1.92
2023-03-28T11:48:06.918Z,3.28
2023-03-28T11:49:20.556Z,1.00
2023-03-28T11:50:28.398Z,2.08
2023-03-28T11:51:36.391Z,2.42
2023-03-28T11:52:44.643Z,1.70
2023-03-28T11:53:51.920Z,3.10
2023-03-28T11:55:03.057Z,2.90
2023-03-28T11:56:14.346Z,4.15
2023-03-28T11:58:25.539Z,1.85
2023-03-28T11:59:35.565Z,7.00
2023-03-28T12:00:43.226Z,2.78
2023-03-28T12:01:49.324Z,1.98
2023-03-28T12:02:57.656Z,9.43
2023-03-28T12:04:06.059Z,0.95
2023-03-28T12:05:18.926Z,2.05
2023-03-28T12:06:27.122Z,0.60
2023-03-28T12:07:36.060Z,2.63
2023-03-28T12:08:44.076Z,0.88
2023-03-28T12:09:58.880Z,2.00
2023-03-28T12:11:11.101Z,1.02
2023-03-28T12:12:18.154Z,1.08
2023-03-28T12:13:28.464Z,1.25
2023-03-28T12:14:41.314Z,2.45
2023-03-28T12:15:49.136Z,1.52
2023-03-28T12:16:53.825Z,2.35
2023-03-28T12:18:00.959Z,2.42
2023-03-28T12:19:06.799Z,3.85
2023-03-28T12:20:16.192Z,3.00
2023-03-28T12:21:23.125Z,4.38
2023-03-28T12:22:30.512Z,2.03
2023-03-28T12:23:43.415Z,2.67
2023-03-28T12:24:51.492Z,0.40
2023-03-28T12:26:02.307Z,1.58
2023-03-28T12:27:12.853Z,3.70
2023-03-28T12:28:24.697Z,1.10
2023-03-28T12:29:34.403Z,2.25
2023-03-28T12:30:43.156Z,1.02
2023-03-28T12:31:56.455Z,1.85
2023-03-28T12:33:09.003Z,0.88
2023-03-28T12:34:14.787Z,1.95
2023-03-28T12:35:22.486Z,1.65
2023-03-28T12:36:34.187Z,1.55
2023-03-28T12:37:42.204Z,2.97
2023-03-28T12:38:55.632Z,1.63
2023-03-28T12:40:13.049Z,1.65
2023-03-28T12:41:19.320Z,0.70
2023-03-28T12:42:23.586Z,2.42
2023-03-28T12:43:30.781Z,2.85
2023-03-28T12:44:42.316Z,4.65
2023-03-28T12:45:48.220Z,2.10
2023-03-28T12:46:58.599Z,4.65
2023-03-28T12:48:07.672Z,1.67
2023-03-28T12:49:16.668Z,2.35
2023-03-28T12:50:27.960Z,3.00
2023-03-28T12:52:42.257Z,3.20
2023-03-28T12:54:11.492Z,6.97
2023-03-28T12:55:42.417Z,1.35
2023-03-28T12:56:49.316Z,2.28
2023-03-28T12:57:53.191Z,1.23
2023-03-28T12:58:59.335Z,0.32
2023-03-28T13:00:25.934Z,6.03
2023-03-28T13:01:41.701Z,3.25
2023-03-28T13:02:52.070Z,4.68
2023-03-28T13:04:02.830Z,6.50
2023-03-28T13:05:23.485Z,0.80
2023-03-28T13:06:37.696Z,0.73
2023-03-28T13:07:57.138Z,2.25
2023-03-28T13:09:19.442Z,5.68
2023-03-28T13:10:29.869Z,4.80
2023-03-28T13:11:40.760Z,4.88
2023-03-28T13:13:04.235Z,1.75
2023-03-28T13:14:28.593Z,1.33
2023-03-28T13:15:33.716Z,3.95
2023-03-28T13:16:46.861Z,5.35
2023-03-28T13:18:30.167Z,3.10
2023-03-28T13:19:52.906Z,1.67
2023-03-28T13:21:04.564Z,4.90
2023-03-28T13:22:29.860Z,1.58
2023-03-28T13:23:47.735Z,1.90
2023-03-28T13:24:50.595Z,1.40
2023-03-28T13:25:57.272Z,3.38
2023-03-28T13:27:30.903Z,0.90
2023-03-28T13:28:38.689Z,15.10
2023-03-28T13:31:03.559Z,1.73
2023-03-28T13:32:12.431Z,4.65
2023-03-28T13:33:24.929Z,1.83
2023-03-28T13:34:34.045Z,3.15
2023-03-28T13:35:40.062Z,0.45
2023-03-28T13:36:51.004Z,1.05
2023-03-28T13:37:53.768Z,2.40
2023-03-28T13:39:30.653Z,2.80
2023-03-28T13:40:50.952Z,1.88
2023-03-28T13:42:30.309Z,1.63
2023-03-28T13:43:49.098Z,1.70
2023-03-28T13:47:32.534Z,3.15
2023-03-28T13:48:44.359Z,12.27
2023-03-28T13:49:50.634Z,2.80
2023-03-28T13:50:54.330Z,8.30
2023-03-28T13:52:00.369Z,2.53
2023-03-28T13:53:02.613Z,5.55
2023-03-28T13:54:04.912Z,2.45
2023-03-28T13:55:19.824Z,2.33
2023-03-28T13:56:25.730Z,3.65
2023-03-28T13:57:28.733Z,2.65
2023-03-28T13:58:31.368Z,2.47
2023-03-28T13:59:37.416Z,0.88
2023-03-28T14:00:41.143Z,1.77
2023-03-28T14:01:48.544Z,2.80
2023-03-28T14:02:52.859Z,1.63
2023-03-28T14:03:57.642Z,5.18
2023-03-28T14:05:11.994Z,5.25
2023-03-28T14:06:23.033Z,3.97
2023-03-28T14:07:27.230Z,5.47
2023-03-28T14:08:29.976Z,8.05
2023-03-28T14:09:34.795Z,0.70
2023-03-28T14:10:42.297Z,2.88
2023-03-28T14:11:45.039Z,4.47
2023-03-28T14:12:48.209Z,3.08
2023-03-28T14:13:57.573Z,1.23
2023-03-28T14:15:01.459Z,6.10
2023-03-28T14:16:07.729Z,3.45
2023-03-28T14:17:14.862Z,2.97
2023-03-28T14:21:46.513Z,4.03
2023-03-28T14:22:59.940Z,1.55
2023-03-28T14:24:06.884Z,0.73
2023-03-28T15:44:33.597Z,6.88
2023-03-28T15:45:45.682Z,7.25
2023-03-28T15:46:53.635Z,12.38
2023-03-28T15:47:56.927Z,8.88
2023-03-28T15:49:00.497Z,12.40
2023-03-28T15:50:06.308Z,9.43
2023-03-28T15:51:16.645Z,7.97
2023-03-28T15:52:21.306Z,9.88
2023-03-28T15:53:29.080Z,5.18
2023-03-28T15:54:34.090Z,3.15
2023-03-28T15:55:37.489Z,6.10
2023-03-28T15:56:43.626Z,3.95
2023-03-28T15:57:49.565Z,1.63
2023-03-28T15:58:52.332Z,6.45
2023-03-28T15:59:58.453Z,2.22
2023-03-28T16:01:23.914Z,4.47
2023-03-28T16:02:33.261Z,5.25
2023-03-28T16:03:37.011Z,2.08
2023-03-28T16:04:39.574Z,5.43
2023-03-28T16:05:47.735Z,5.07
2023-03-28T16:06:55.541Z,31.85
2023-03-28T16:08:22.342Z,21.92
2023-03-28T16:09:26.397Z,6.97
2023-03-28T16:10:31.942Z,4.75
2023-03-28T16:11:37.270Z,2.05
2023-03-28T16:12:43.116Z,7.32
2023-03-28T16:13:48.044Z,6.15
2023-03-28T16:14:59.007Z,9.65
2023-03-28T16:16:12.947Z,8.93
2023-03-28T16:17:26.549Z,10.10
2023-03-28T16:18:37.810Z,3.25
2023-03-28T16:19:52.508Z,4.63
2023-03-28T16:20:55.014Z,9.48
2023-03-28T16:22:01.072Z,3.03
2023-03-28T16:23:17.189Z,1.42
2023-03-28T16:24:26.766Z,5.97
2023-03-28T16:25:32.124Z,4.22
2023-03-28T16:26:36.550Z,3.88
2023-03-28T16:27:53.132Z,2.95
2023-03-28T16:29:01.951Z,4.50
2023-03-28T16:30:28.834Z,3.60
2023-03-28T16:31:37.036Z,2.63
2023-03-28T16:32:39.525Z,5.72
2023-03-28T16:33:45.757Z,4.40
2023-03-28T16:34:48.630Z,4.45
2023-03-28T16:35:51.380Z,3.25
2023-03-28T16:36:58.968Z,2.28
2023-03-28T16:38:02.002Z,1.80
2023-03-28T16:39:09.480Z,1.27
2023-03-28T16:40:12.579Z,1.65
2023-03-28T16:41:16.493Z,4.82
2023-03-28T16:42:20.942Z,1.35
2023-03-28T16:43:29.124Z,2.92
2023-03-28T16:44:33.595Z,3.00
2023-03-28T16:45:39.008Z,7.28
2023-03-28T16:46:44.395Z,5.63
2023-03-28T16:47:47.145Z,2.38
2023-03-28T16:48:50.428Z,2.45
2023-03-28T16:49:55.899Z,3.55
2023-03-28T16:51:04.991Z,1.98
2023-03-28T16:52:08.902Z,2.78
2023-03-28T16:53:12.420Z,2.08
2023-03-28T16:54:21.142Z,2.38
2023-03-28T16:55:24.011Z,2.70
2023-03-28T16:56:33.136Z,2.08
2023-03-28T16:57:40.544Z,1.67
2023-03-28T16:58:43.537Z,5.97
2023-03-28T16:59:46.985Z,1.63
2023-03-28T17:00:49.356Z,3.80
2023-03-28T17:01:52.347Z,2.38
2023-03-28T17:02:55.270Z,1.63
2023-03-28T17:03:58.184Z,3.35
2023-03-28T17:05:02.139Z,1.45
2023-03-28T17:06:10.147Z,1.63
2023-03-28T17:07:13.890Z,2.60
2023-03-28T17:08:16.476Z,2.38
2023-03-28T17:09:18.739Z,2.80
2023-03-28T17:10:20.988Z,2.08
2023-03-28T17:11:24.800Z,4.75
2023-03-28T17:12:50.179Z,3.15
2023-03-28T17:13:55.722Z,1.88
2023-03-28T17:14:58.215Z,5.38
2023-03-28T17:16:02.373Z,2.35
2023-03-28T17:17:06.209Z,5.68
2023-03-28T17:18:10.293Z,2.40
2023-03-28T17:19:13.170Z,3.33
2023-03-28T17:20:18.352Z,3.00
2023-03-28T17:21:23.614Z,6.15
2023-03-28T17:22:29.924Z,5.60
2023-03-28T17:23:33.241Z,3.40
2023-03-28T17:24:41.239Z,2.47
2023-03-28T17:25:54.010Z,2.65
2023-03-28T17:27:01.928Z,2.85
2023-03-28T17:28:04.947Z,1.55
2023-03-28T17:29:09.741Z,4.22
2023-03-28T17:30:13.898Z,3.35
2023-03-28T17:31:18.707Z,2.15
2023-03-28T17:32:21.251Z,1.65
2023-03-28T17:33:23.736Z,3.42
2023-03-28T17:34:26.085Z,2.60
2023-03-28T17:35:28.265Z,1.27
2023-03-28T17:36:30.763Z,2.53
2023-03-28T17:37:34.777Z,3.85
2023-03-28T17:38:37.376Z,2.70
2023-03-28T17:39:41.034Z,8.52
2023-03-28T17:40:50.000Z,1.60
2023-03-28T17:41:52.352Z,3.10
2023-03-28T17:42:54.951Z,5.88
2023-03-28T17:43:58.309Z,3.45
2023-03-28T17:45:01.284Z,3.60
2023-03-28T17:46:06.506Z,3.05
2023-03-28T17:47:09.396Z,5.97
2023-03-28T17:48:12.689Z,3.25
2023-03-28T17:49:16.963Z,3.28
2023-03-28T17:50:21.225Z,6.88
2023-03-28T17:51:24.043Z,3.45
2023-03-28T17:52:29.744Z,2.67
2023-03-28T17:53:34.345Z,4.60
2023-03-28T17:54:36.824Z,2.95
2023-03-28T17:55:39.291Z,4.63
2023-03-28T17:56:42.232Z,2.50
2023-03-28T17:57:44.563Z,2.53
2023-03-28T17:58:47.583Z,5.05
2023-03-28T17:59:49.891Z,3.15
2023-03-28T18:00:52.676Z,4.10
2023-03-28T18:01:58.136Z,5.80
2023-03-28T18:03:00.450Z,6.45
2023-03-28T18:04:02.854Z,3.90
2023-03-28T18:05:08.977Z,4.43
2023-03-28T18:06:12.531Z,5.10
2023-03-28T18:07:16.775Z,4.25
2023-03-28T18:08:20.045Z,5.57
2023-03-28T18:09:23.808Z,6.15
2023-03-28T18:10:26.328Z,5.32
2023-03-28T18:11:30.732Z,3.70
2023-03-28T18:12:32.884Z,4.30
2023-03-28T18:13:36.570Z,3.10
2023-03-28T18:14:38.833Z,4.03
2023-03-28T18:15:42.194Z,4.50
2023-03-28T18:16:45.058Z,4.28
2023-03-28T18:17:47.580Z,5.97
2023-03-28T18:18:49.742Z,8.77
2023-03-28T18:19:51.953Z,7.18
2023-03-28T18:20:54.347Z,6.40
2023-03-28T18:21:56.629Z,8.70
2023-03-28T18:22:58.805Z,6.55
2023-03-28T18:24:00.963Z,9.85
2023-03-28T18:25:05.462Z,9.32
2023-03-28T18:26:08.182Z,8.82
2023-03-28T18:27:10.920Z,13.18
2023-03-28T18:28:13.130Z,12.27
2023-03-28T18:29:15.408Z,13.93
2023-03-28T18:30:17.898Z,15.90
2023-03-28T18:31:27.855Z,15.35
2023-03-28T18:32:31.161Z,16.30
2023-03-28T18:33:33.629Z,19.20
2023-03-28T18:34:36.192Z,17.92
2023-03-28T18:35:38.730Z,18.15
2023-03-28T18:36:42.092Z,17.40
2023-03-28T18:37:44.359Z,15.93
2023-03-28T18:38:47.859Z,15.10
2023-03-28T18:39:50.580Z,11.45
2023-03-28T18:40:54.365Z,12.23
2023-03-28T18:41:56.602Z,10.10
2023-03-28T18:42:58.999Z,13.35
2023-03-28T18:44:01.410Z,14.15
2023-03-28T18:45:03.943Z,16.23
2023-03-28T18:46:07.897Z,15.88
2023-03-28T18:47:10.810Z,11.50
2023-03-28T18:48:15.886Z,14.68
2023-03-28T18:49:18.257Z,11.32
2023-03-28T18:50:21.199Z,12.93
2023-03-28T18:51:23.580Z,8.95
2023-03-28T18:52:28.320Z,13.00
2023-03-28T18:53:33.870Z,10.60
2023-03-28T18:54:36.739Z,10.32
2023-03-28T18:55:41.443Z,11.07
2023-03-28T18:56:45.728Z,12.50
2023-03-28T18:57:47.907Z,13.13
2023-03-28T18:58:50.459Z,9.30
2023-03-28T18:59:53.850Z,12.30
2023-03-28T19:00:58.585Z,9.50
2023-03-28T19:02:01.438Z,9.50
2023-03-28T19:03:03.784Z,16.13
2023-03-28T19:04:06.236Z,12.30
2023-03-28T19:05:09.590Z,11.30
2023-03-28T19:06:13.438Z,9.30
2023-03-28T19:07:18.980Z,11.57
2023-03-28T19:08:21.466Z,13.27
2023-03-28T19:09:23.677Z,15.77
2023-03-28T19:10:26.192Z,14.82
2023-03-28T19:11:28.600Z,12.88
2023-03-28T19:12:34.430Z,10.40
2023-03-28T19:13:37.263Z,10.27
2023-03-28T19:14:39.846Z,12.02
2023-03-28T19:15:42.247Z,9.80
2023-03-28T20:35:07.825Z,6.18
2023-03-28T20:36:10.717Z,5.15
2023-03-28T20:37:14.196Z,3.95
2023-03-28T20:38:16.308Z,4.15
2023-03-28T20:39:18.732Z,4.82
2023-03-28T20:40:21.205Z,3.88
2023-03-28T20:41:24.314Z,4.40
2023-03-28T20:42:30.189Z,7.05
2023-03-28T20:43:36.868Z,4.15
2023-03-28T20:44:41.963Z,4.18
2023-03-28T20:45:45.996Z,7.25
2023-03-28T20:46:49.654Z,3.22
2023-03-28T20:47:56.420Z,4.57
2023-03-28T20:48:59.626Z,3.60
2023-03-28T20:50:05.621Z,3.15
2023-03-28T20:51:15.096Z,3.92
2023-03-28T20:52:17.221Z,4.05
2023-03-28T20:53:20.042Z,3.75
2023-03-28T20:54:24.400Z,2.05
2023-03-28T20:55:29.279Z,4.30
2023-03-28T20:56:32.623Z,3.70
2023-03-28T20:57:40.583Z,5.90
2023-03-28T20:58:42.903Z,4.22
2023-03-28T20:59:45.099Z,2.28
2023-03-28T21:00:56.233Z,4.25
2023-03-28T21:03:03.442Z,3.50
2023-03-28T21:04:07.243Z,3.92
2023-03-28T21:05:10.073Z,3.92
2023-03-28T21:06:12.931Z,1.92
